createdAt,value
2023-03-17T00:01:56.002Z,76.99
2023-03-17T00:04:25.284Z,78.05
2023-03-17T00:06:52.961Z,77.79
2023-03-17T00:09:22.205Z,77.67
2023-03-17T00:11:50.148Z,77.13
2023-03-17T00:14:17.747Z,77.29
2023-03-17T00:16:52.619Z,77.41
2023-03-17T00:19:32.315Z,77.19
2023-03-17T00:22:00.829Z,77.17
2023-03-17T00:24:28.977Z,78.10
2023-03-17T00:26:56.004Z,78.18
2023-03-17T00:29:23.916Z,78.06
2023-03-17T00:31:51.206Z,76.93
2023-03-17T00:34:22.304Z,77.27
2023-03-17T00:36:51.051Z,76.66
2023-03-17T00:39:18.811Z,77.35
2023-03-17T00:44:14.400Z,77.37
2023-03-17T00:46:41.865Z,76.70
2023-03-17T00:51:45.895Z,77.48
2023-03-17T00:54:16.371Z,77.22
2023-03-17T00:56:44.319Z,77.91
2023-03-17T00:59:30.055Z,77.19
2023-03-17T01:01:57.655Z,77.50
2023-03-17T01:04:25.399Z,77.45
2023-03-17T01:06:52.951Z,77.92
2023-03-17T01:09:24.100Z,77.69
2023-03-17T01:11:51.081Z,77.13
2023-03-17T01:14:18.204Z,77.25
2023-03-17T01:16:45.439Z,77.89
2023-03-17T01:19:14.017Z,77.47
2023-03-17T01:21:41.613Z,77.98
2023-03-17T01:24:09.720Z,77.76
2023-03-17T01:26:36.913Z,77.66
2023-03-17T01:29:04.896Z,77.78
2023-03-17T01:31:31.997Z,77.74
2023-03-17T01:33:58.925Z,77.43
2023-03-17T01:36:26.226Z,77.05
2023-03-17T01:38:53.705Z,77.85
2023-03-17T01:41:23.592Z,77.21
2023-03-17T01:43:51.245Z,77.13
2023-03-17T01:46:36.987Z,77.36
2023-03-17T01:49:30.272Z,77.22
2023-03-17T01:52:15.977Z,78.35
2023-03-17T01:54:45.437Z,78.83
2023-03-17T01:57:37.093Z,78.19
2023-03-17T02:00:16.220Z,79.03
2023-03-17T02:02:50.228Z,77.70
2023-03-17T02:05:23.041Z,78.27
2023-03-17T02:07:51.231Z,77.75
2023-03-17T02:10:21.976Z,78.67
2023-03-17T02:12:55.557Z,78.24
2023-03-17T02:15:23.849Z,77.58
2023-03-17T02:17:51.822Z,77.66
2023-03-17T02:20:24.925Z,78.07
2023-03-17T02:22:53.891Z,77.27
2023-03-17T02:25:23.703Z,77.55
2023-03-17T02:27:56.936Z,76.93
2023-03-17T02:30:25.475Z,77.25
2023-03-17T02:32:52.482Z,77.22
2023-03-17T02:35:22.319Z,77.03
2023-03-17T02:37:49.352Z,77.09
2023-03-17T02:40:16.636Z,76.93
2023-03-17T02:42:43.682Z,76.95
2023-03-17T02:45:12.243Z,77.27
2023-03-17T02:47:41.357Z,77.52
2023-03-17T02:50:17.818Z,77.88
2023-03-17T02:52:44.737Z,77.04
2023-03-17T02:55:11.669Z,77.56
2023-03-17T02:57:38.610Z,77.69
2023-03-17T03:00:06.510Z,78.61
2023-03-17T03:02:34.552Z,78.81
2023-03-17T03:05:01.636Z,78.05
2023-03-17T03:07:28.689Z,78.34
2023-03-17T03:09:55.554Z,78.11
2023-03-17T03:12:22.765Z,78.82
2023-03-17T03:14:49.623Z,78.79
2023-03-17T03:17:16.575Z,78.30
2023-03-17T03:19:43.788Z,78.35
2023-03-17T03:22:10.887Z,79.09
2023-03-17T03:24:38.298Z,78.42
2023-03-17T03:27:05.293Z,78.85
2023-03-17T03:29:32.239Z,78.89
2023-03-17T03:31:59.137Z,78.70
2023-03-17T03:34:26.146Z,78.78
2023-03-17T03:36:53.118Z,79.10
2023-03-17T03:39:20.080Z,78.87
2023-03-17T03:41:47.018Z,78.52
2023-03-17T03:44:13.996Z,78.53
2023-03-17T03:46:40.950Z,79.01
2023-03-17T03:49:08.006Z,77.90
2023-03-17T03:51:34.939Z,78.71
2023-03-17T03:54:03.140Z,78.57
2023-03-17T03:56:30.196Z,78.92
2023-03-17T03:58:57.198Z,77.99
2023-03-17T04:01:24.708Z,78.21
2023-03-17T04:03:52.048Z,77.69
2023-03-17T04:06:19.279Z,78.25
2023-03-17T04:08:46.308Z,77.72
2023-03-17T04:11:13.260Z,77.44
2023-03-17T04:13:40.177Z,77.43
2023-03-17T04:16:07.676Z,77.98
2023-03-17T04:18:35.633Z,77.59
2023-03-17T04:21:02.695Z,78.20
2023-03-17T04:23:31.560Z,77.77
2023-03-17T04:25:59.042Z,77.40
2023-03-17T04:28:26.077Z,77.84
2023-03-17T04:30:53.083Z,77.60
2023-03-17T04:33:20.310Z,77.07
2023-03-17T04:35:47.352Z,77.35
2023-03-17T04:38:14.553Z,77.96
2023-03-17T04:40:41.540Z,77.53
2023-03-17T04:43:10.271Z,77.49
2023-03-17T04:45:37.429Z,77.46
2023-03-17T04:48:05.233Z,77.60
2023-03-17T04:50:33.335Z,77.54
2023-03-17T04:53:00.463Z,77.69
2023-03-17T04:55:28.112Z,78.33
2023-03-17T04:57:55.036Z,77.76
2023-03-17T05:00:22.108Z,78.25
2023-03-17T05:02:49.082Z,78.32
2023-03-17T05:05:16.485Z,78.67
2023-03-17T05:07:44.752Z,78.82
2023-03-17T05:10:12.518Z,78.24
2023-03-17T05:12:39.444Z,78.43
2023-03-17T05:15:07.169Z,78.52
2023-03-17T05:17:34.214Z,78.41
2023-03-17T05:20:01.364Z,78.35
2023-03-17T05:22:28.581Z,77.92
2023-03-17T05:24:55.576Z,77.98
2023-03-17T05:27:23.239Z,78.72
2023-03-17T05:29:50.168Z,78.92
2023-03-17T05:32:17.291Z,77.74
2023-03-17T05:34:45.217Z,78.44
2023-03-17T05:37:12.805Z,78.05
2023-03-17T05:39:40.278Z,78.88
2023-03-17T05:42:08.493Z,78.19
2023-03-17T05:44:35.776Z,77.89
2023-03-17T05:47:02.977Z,78.29
2023-03-17T05:49:30.063Z,78.01
2023-03-17T05:51:57.307Z,78.36
2023-03-17T05:54:24.410Z,78.53
2023-03-17T05:56:51.493Z,78.70
2023-03-17T05:59:18.620Z,78.41
2023-03-17T06:01:45.644Z,78.19
2023-03-17T06:04:12.688Z,78.47
2023-03-17T06:06:40.180Z,78.18
2023-03-17T06:09:07.059Z,78.03
2023-03-17T06:11:34.023Z,78.38
2023-03-17T06:14:01.697Z,77.65
2023-03-17T06:16:30.786Z,77.21
2023-03-17T06:18:57.857Z,77.27
2023-03-17T06:21:24.920Z,76.50
2023-03-17T06:23:52.142Z,76.58
2023-03-17T06:26:19.186Z,76.37
2023-03-17T06:28:46.844Z,75.63
2023-03-17T06:31:13.949Z,74.62
2023-03-17T06:33:41.652Z,74.24
2023-03-17T06:36:08.895Z,74.13
2023-03-17T06:38:36.459Z,73.89
2023-03-17T06:41:03.632Z,73.43
2023-03-17T06:43:31.409Z,73.06
2023-03-17T06:45:58.464Z,72.95
2023-03-17T06:48:25.430Z,72.45
2023-03-17T06:50:52.607Z,72.36
2023-03-17T06:53:19.580Z,72.27
2023-03-17T06:55:47.127Z,71.12
2023-03-17T06:58:15.826Z,70.98
2023-03-17T07:00:45.364Z,71.23
2023-03-17T07:03:12.330Z,70.53
2023-03-17T07:05:39.362Z,69.79
2023-03-17T07:08:06.658Z,69.27
2023-03-17T07:10:33.873Z,69.72
2023-03-17T07:13:02.388Z,69.24
2023-03-17T07:15:34.634Z,69.72
2023-03-17T07:18:02.201Z,69.14
2023-03-17T07:20:29.184Z,68.51
2023-03-17T07:22:56.503Z,68.34
2023-03-17T07:25:23.790Z,68.72
2023-03-17T07:27:52.133Z,68.69
2023-03-17T07:30:19.469Z,68.19
2023-03-17T07:32:47.672Z,68.41
2023-03-17T07:35:15.544Z,68.17
2023-03-17T07:37:42.731Z,67.47
2023-03-17T07:40:10.995Z,67.03
2023-03-17T07:42:38.697Z,66.86
2023-03-17T07:45:07.871Z,66.30
2023-03-17T07:47:34.872Z,65.34
2023-03-17T07:50:01.901Z,65.01
2023-03-17T07:52:28.888Z,64.98
2023-03-17T07:54:56.133Z,65.36
2023-03-17T07:57:23.491Z,64.32
2023-03-17T07:59:50.720Z,64.60
2023-03-17T08:02:19.495Z,65.08
2023-03-17T08:04:46.805Z,66.13
2023-03-17T08:07:15.552Z,64.83
2023-03-17T08:09:42.690Z,64.56
2023-03-17T08:12:10.276Z,64.76
2023-03-17T08:14:37.200Z,64.12
2023-03-17T08:17:04.874Z,64.02
2023-03-17T08:19:31.914Z,62.22
2023-03-17T08:21:58.892Z,62.30
2023-03-17T08:24:27.021Z,60.39
2023-03-17T08:26:54.345Z,60.43
2023-03-17T08:29:21.614Z,60.67
2023-03-17T08:31:48.691Z,60.90
2023-03-17T08:34:16.499Z,60.25
2023-03-17T08:36:43.824Z,60.51
2023-03-17T08:39:10.974Z,59.92
2023-03-17T08:41:38.675Z,60.46
2023-03-17T08:44:05.810Z,59.72
2023-03-17T08:46:33.280Z,59.71
2023-03-17T08:49:01.325Z,59.57
2023-03-17T08:51:34.748Z,59.11
2023-03-17T08:54:02.558Z,58.12
2023-03-17T08:56:29.578Z,58.53
2023-03-17T08:58:56.970Z,58.02
2023-03-17T09:01:24.866Z,57.09
2023-03-17T09:03:54.742Z,57.37
2023-03-17T09:06:22.909Z,56.71
2023-03-17T09:08:55.169Z,56.70
2023-03-17T09:11:26.955Z,56.13
2023-03-17T09:13:55.398Z,56.87
2023-03-17T09:16:26.923Z,55.17
2023-03-17T09:18:54.639Z,56.05
2023-03-17T09:21:22.204Z,56.00
2023-03-17T09:23:49.348Z,54.86
2023-03-17T09:26:16.359Z,54.83
2023-03-17T09:28:43.594Z,54.68
2023-03-17T09:31:12.430Z,54.39
2023-03-17T09:33:41.526Z,54.30
2023-03-17T09:36:10.176Z,54.05
2023-03-17T09:38:37.466Z,54.25
2023-03-17T09:41:39.520Z,54.12
2023-03-17T09:44:25.414Z,54.50
2023-03-17T09:47:34.138Z,54.53
2023-03-17T09:50:08.462Z,54.83
2023-03-17T09:52:36.253Z,55.20
2023-03-17T09:55:08.461Z,54.79
2023-03-17T09:57:40.727Z,54.52
2023-03-17T10:00:18.040Z,54.06
2023-03-17T10:02:46.113Z,55.07
2023-03-17T10:05:35.630Z,53.87
2023-03-17T10:08:32.456Z,53.82
2023-03-17T10:11:38.798Z,53.65
2023-03-17T10:14:25.367Z,52.96
2023-03-17T10:17:19.230Z,53.21
2023-03-17T10:20:06.100Z,52.82
2023-03-17T10:22:44.554Z,52.18
2023-03-17T10:25:14.974Z,52.37
2023-03-17T10:27:48.729Z,52.54
2023-03-17T10:30:23.574Z,52.47
2023-03-17T10:32:52.404Z,52.91
2023-03-17T10:35:20.382Z,53.12
2023-03-17T10:37:48.198Z,51.66
2023-03-17T10:40:28.722Z,52.04
2023-03-17T10:43:07.641Z,52.55
2023-03-17T10:45:44.004Z,53.09
2023-03-17T10:48:19.122Z,52.93
2023-03-17T10:50:49.380Z,52.59
2023-03-17T10:53:30.331Z,50.19
2023-03-17T10:56:09.544Z,51.13
2023-03-17T10:58:49.083Z,51.59
2023-03-17T11:01:36.726Z,52.21
2023-03-17T11:04:20.740Z,53.13
2023-03-17T11:06:52.370Z,52.21
2023-03-17T11:09:21.564Z,52.51
2023-03-17T11:12:01.496Z,53.07
2023-03-17T11:14:29.021Z,52.16
2023-03-17T11:17:03.533Z,52.79
2023-03-17T11:19:48.971Z,53.40
2023-03-17T11:22:41.465Z,52.58
2023-03-17T11:25:20.541Z,52.47
2023-03-17T11:28:12.036Z,52.52
2023-03-17T11:31:13.066Z,51.07
2023-03-17T11:34:19.918Z,51.98
2023-03-17T11:37:06.988Z,51.01
2023-03-17T11:39:47.008Z,51.85
2023-03-17T11:42:51.254Z,52.05
2023-03-17T11:45:47.603Z,50.67
2023-03-17T11:48:32.920Z,51.87
2023-03-17T11:51:27.542Z,50.16
2023-03-17T11:54:31.208Z,50.45
2023-03-17T11:57:01.764Z,50.59
2023-03-17T12:00:19.221Z,51.90
2023-03-17T12:03:29.918Z,51.89
2023-03-17T12:06:05.444Z,52.22
2023-03-17T12:08:46.021Z,51.57
2023-03-17T12:11:18.179Z,51.65
2023-03-17T12:14:07.612Z,52.53
2023-03-17T12:17:23.137Z,52.03
2023-03-17T12:20:14.830Z,52.73
2023-03-17T12:22:57.236Z,52.16
2023-03-17T12:25:45.229Z,51.25
2023-03-17T12:28:27.165Z,51.08
2023-03-17T12:31:02.145Z,51.66
2023-03-17T12:34:11.235Z,50.92
2023-03-17T12:36:40.474Z,50.38
2023-03-17T12:39:12.531Z,50.61
2023-03-17T12:42:18.608Z,50.35
2023-03-17T12:45:30.496Z,50.30
2023-03-17T12:48:24.382Z,49.82
2023-03-17T12:51:22.629Z,50.12
2023-03-17T12:53:51.515Z,50.81
2023-03-17T12:56:28.106Z,50.85
2023-03-17T12:59:07.102Z,52.05
2023-03-17T13:02:28.833Z,51.62
2023-03-17T13:05:00.754Z,50.14
2023-03-17T13:07:53.781Z,49.62
2023-03-17T13:10:40.882Z,50.67
2023-03-17T13:13:41.547Z,51.08
2023-03-17T13:16:41.216Z,50.73
2023-03-17T13:19:21.059Z,50.76
2023-03-17T13:21:57.916Z,50.24
2023-03-17T13:24:40.582Z,49.04
2023-03-17T13:27:12.239Z,48.91
2023-03-17T13:29:45.509Z,49.23
2023-03-17T13:32:27.923Z,49.29
2023-03-17T13:35:01.340Z,48.90
2023-03-17T13:38:02.882Z,49.93
2023-03-17T13:40:50.696Z,49.89
2023-03-17T13:43:59.486Z,51.04
2023-03-17T13:46:41.322Z,51.43
2023-03-17T13:49:21.478Z,50.87
2023-03-17T13:52:13.861Z,50.79
2023-03-17T13:54:48.055Z,50.92
2023-03-17T13:57:38.249Z,51.03
2023-03-17T14:00:25.917Z,51.57
2023-03-17T14:03:29.382Z,52.03
2023-03-17T14:05:56.940Z,51.59
2023-03-17T14:08:42.857Z,49.94
2023-03-17T14:11:38.527Z,50.72
2023-03-17T14:14:33.497Z,51.46
2023-03-17T14:17:45.679Z,51.88
2023-03-17T14:20:15.619Z,49.72
2023-03-17T14:22:46.130Z,50.99
2023-03-17T14:25:16.511Z,50.69
2023-03-17T14:27:46.472Z,50.86
2023-03-17T14:30:21.588Z,51.37
2023-03-17T14:33:06.105Z,51.45
2023-03-17T14:35:42.066Z,50.60
2023-03-17T14:38:31.597Z,49.86
2023-03-17T14:41:14.764Z,50.34
2023-03-17T14:43:43.814Z,49.56
2023-03-17T14:46:21.417Z,50.10
2023-03-17T14:48:52.074Z,49.56
2023-03-17T14:51:36.172Z,50.87
2023-03-17T14:54:12.562Z,50.95
2023-03-17T14:56:45.858Z,51.39
2023-03-17T14:59:34.413Z,50.23
2023-03-17T15:02:16.452Z,51.14
2023-03-17T15:05:23.971Z,52.24
2023-03-17T15:07:51.849Z,52.21
2023-03-17T15:10:24.484Z,52.63
2023-03-17T15:13:05.900Z,52.53
2023-03-17T15:15:42.086Z,52.68
2023-03-17T15:18:14.880Z,53.47
2023-03-17T15:20:45.807Z,53.28
2023-03-17T15:23:19.948Z,53.98
2023-03-17T15:25:55.486Z,53.79
2023-03-17T15:28:34.131Z,54.22
2023-03-17T15:31:13.185Z,54.68
2023-03-17T15:33:42.039Z,54.27
2023-03-17T15:36:31.387Z,55.11
2023-03-17T15:39:00.614Z,54.63
2023-03-17T15:41:27.693Z,54.16
2023-03-17T15:43:54.685Z,55.17
2023-03-17T15:46:31.014Z,55.35
2023-03-17T15:48:58.278Z,55.36
2023-03-17T15:51:25.433Z,56.14
2023-03-17T15:53:52.407Z,55.71
2023-03-17T15:56:21.251Z,55.00
2023-03-17T15:58:51.629Z,55.91
2023-03-17T16:01:19.838Z,56.53
2023-03-17T16:03:47.940Z,56.41
2023-03-17T16:06:22.061Z,56.34
2023-03-17T16:08:49.938Z,56.81
2023-03-17T16:11:28.101Z,56.83
2023-03-17T16:13:57.287Z,57.60
2023-03-17T16:16:41.372Z,57.16
2023-03-17T16:19:20.182Z,57.33
2023-03-17T16:21:47.386Z,57.62
2023-03-17T16:24:26.184Z,56.99
2023-03-17T16:26:53.873Z,57.40
2023-03-17T16:29:21.504Z,57.81
2023-03-17T16:31:51.041Z,57.56
2023-03-17T16:34:22.129Z,57.68
2023-03-17T16:36:50.383Z,57.76
2023-03-17T16:39:23.194Z,58.60
2023-03-17T16:41:50.777Z,58.44
2023-03-17T16:44:20.922Z,58.56
2023-03-17T16:46:48.694Z,58.71
2023-03-17T16:49:18.742Z,58.68
2023-03-17T16:51:46.158Z,59.07
2023-03-17T16:54:13.301Z,59.22
2023-03-17T16:56:42.333Z,58.91
2023-03-17T16:59:24.390Z,59.62
2023-03-17T17:01:52.311Z,59.48
2023-03-17T17:04:19.424Z,59.60
2023-03-17T17:06:46.318Z,59.69
2023-03-17T17:09:13.277Z,59.83
2023-03-17T17:11:40.361Z,59.53
2023-03-17T17:14:07.307Z,59.46
2023-03-17T17:16:38.505Z,59.39
2023-03-17T17:19:17.313Z,60.38
2023-03-17T17:21:45.151Z,60.49
2023-03-17T17:24:13.800Z,60.82
2023-03-17T17:26:40.796Z,60.57
2023-03-17T17:29:07.793Z,61.05
2023-03-17T17:31:34.983Z,60.79
2023-03-17T17:34:02.496Z,60.98
2023-03-17T17:36:29.562Z,61.59
2023-03-17T17:38:56.578Z,62.11
2023-03-17T17:41:23.550Z,61.67
2023-03-17T17:43:50.956Z,61.73
2023-03-17T17:46:21.735Z,62.87
2023-03-17T17:48:49.089Z,62.86
2023-03-17T17:51:16.456Z,62.49
2023-03-17T17:53:43.700Z,62.24
2023-03-17T17:56:17.690Z,63.23
2023-03-17T17:58:45.626Z,62.50
2023-03-17T18:01:14.186Z,62.83
2023-03-17T18:03:42.808Z,62.15
2023-03-17T18:06:09.876Z,62.62
2023-03-17T18:08:37.432Z,62.67
2023-03-17T18:11:05.352Z,62.27
2023-03-17T18:13:34.276Z,63.16
2023-03-17T18:16:01.785Z,62.75
2023-03-17T18:18:28.806Z,62.13
2023-03-17T18:20:56.343Z,61.67
2023-03-17T18:23:26.557Z,61.87
2023-03-17T18:26:00.584Z,61.86
2023-03-17T18:28:27.681Z,62.51
2023-03-17T18:30:55.144Z,62.71
2023-03-17T18:33:22.313Z,63.43
2023-03-17T18:35:52.175Z,63.21
2023-03-17T18:38:19.197Z,63.13
2023-03-17T18:40:46.315Z,62.95
2023-03-17T18:43:13.423Z,62.88
2023-03-17T18:45:41.197Z,63.20
2023-03-17T18:48:08.241Z,63.13
2023-03-17T18:50:37.023Z,63.69
2023-03-17T18:53:04.050Z,63.81
2023-03-17T18:55:31.006Z,64.09
2023-03-17T18:57:58.224Z,65.80
2023-03-17T19:00:26.443Z,65.09
2023-03-17T19:02:53.766Z,64.55
2023-03-17T19:05:21.020Z,64.36
2023-03-17T19:07:47.947Z,64.52
2023-03-17T19:10:15.387Z,64.93
2023-03-17T19:12:44.013Z,64.55
2023-03-17T19:15:12.919Z,63.72
2023-03-17T19:17:40.676Z,65.37
2023-03-17T19:20:08.751Z,64.84
2023-03-17T19:22:35.700Z,64.15
2023-03-17T19:25:04.323Z,65.52
2023-03-17T19:27:31.330Z,63.84
2023-03-17T19:29:58.463Z,64.84
2023-03-17T19:32:25.388Z,64.58
2023-03-17T19:34:52.585Z,64.29
2023-03-17T19:37:19.536Z,64.60
2023-03-17T19:39:46.949Z,64.52
2023-03-17T19:42:14.078Z,66.19
2023-03-17T19:44:41.074Z,65.56
2023-03-17T19:47:08.417Z,62.80
2023-03-17T19:49:37.431Z,64.51
2023-03-17T19:52:09.500Z,64.82
2023-03-17T19:54:45.765Z,64.41
2023-03-17T19:57:14.140Z,65.15
2023-03-17T19:59:41.415Z,64.55
2023-03-17T20:02:13.128Z,64.31
2023-03-17T20:04:40.235Z,65.32
2023-03-17T20:07:07.485Z,65.47
2023-03-17T20:09:35.484Z,64.90
2023-03-17T20:12:02.398Z,65.43
2023-03-17T20:14:29.295Z,65.85
2023-03-17T20:16:56.685Z,65.62
2023-03-17T20:19:23.873Z,64.07
2023-03-17T20:21:50.955Z,64.06
2023-03-17T20:24:17.869Z,64.05
2023-03-17T20:26:45.141Z,63.63
2023-03-17T20:29:16.125Z,64.88
2023-03-17T20:31:43.794Z,65.18
2023-03-17T20:34:11.749Z,65.05
2023-03-17T20:36:42.588Z,65.64
2023-03-17T20:39:14.794Z,64.28
2023-03-17T20:41:41.751Z,65.41
2023-03-17T20:44:08.856Z,65.33
2023-03-17T20:46:36.063Z,65.42
2023-03-17T20:49:04.217Z,65.70
2023-03-17T20:51:32.275Z,66.58
2023-03-17T20:54:00.654Z,66.15
2023-03-17T20:56:29.880Z,66.75
2023-03-17T20:58:58.392Z,66.23
2023-03-17T21:01:25.597Z,66.08
2023-03-17T21:03:53.578Z,66.01
2023-03-17T21:06:20.796Z,66.07
2023-03-17T21:08:47.759Z,64.76
2023-03-17T21:11:20.219Z,64.99
2023-03-17T21:13:47.607Z,64.47
2023-03-17T21:16:25.545Z,64.97
2023-03-17T21:18:53.059Z,65.23
2023-03-17T21:21:21.734Z,65.33
2023-03-17T21:23:49.165Z,66.75
2023-03-17T21:26:16.291Z,66.40
2023-03-17T21:28:44.240Z,66.53
2023-03-17T21:31:13.313Z,66.55
2023-03-17T21:33:40.408Z,66.27
2023-03-17T21:36:07.796Z,66.52
2023-03-17T21:38:34.866Z,66.54
2023-03-17T21:41:29.241Z,66.96
2023-03-17T21:43:56.239Z,66.91
2023-03-17T21:46:23.372Z,66.86
2023-03-17T21:48:50.558Z,66.66
2023-03-17T21:51:17.888Z,66.57
2023-03-17T21:53:44.815Z,67.15
2023-03-17T21:56:12.636Z,66.82
2023-03-17T21:58:39.746Z,66.94
2023-03-17T22:01:07.564Z,67.57
2023-03-17T22:03:34.629Z,67.62
2023-03-17T22:06:05.525Z,68.49
2023-03-17T22:08:32.683Z,68.88
2023-03-17T22:11:00.184Z,68.60
2023-03-17T22:13:27.130Z,68.33
2023-03-17T22:15:58.484Z,67.70
2023-03-17T22:18:25.839Z,67.72
2023-03-17T22:20:58.890Z,67.89
2023-03-17T22:23:27.573Z,67.27
2023-03-17T22:25:56.312Z,67.10
2023-03-17T22:28:24.457Z,66.90
2023-03-17T22:30:51.456Z,66.65
2023-03-17T22:33:18.572Z,66.49
2023-03-17T22:35:45.952Z,66.54
2023-03-17T22:38:13.091Z,66.34
2023-03-17T22:40:40.074Z,66.44
2023-03-17T22:43:07.335Z,65.34
2023-03-17T22:45:34.257Z,65.20
2023-03-17T22:48:01.269Z,65.83
2023-03-17T22:50:28.235Z,64.76
2023-03-17T22:52:55.198Z,65.11
2023-03-17T22:55:22.591Z,65.33
2023-03-17T22:57:49.521Z,65.33
2023-03-17T23:00:17.253Z,65.23
2023-03-17T23:02:46.714Z,65.29
2023-03-17T23:05:14.526Z,65.18
2023-03-17T23:07:50.336Z,65.37
2023-03-17T23:10:22.988Z,65.83
2023-03-17T23:12:51.024Z,65.56
2023-03-17T23:15:19.700Z,65.55
2023-03-17T23:17:47.462Z,66.59
2023-03-17T23:20:15.415Z,67.44
2023-03-17T23:22:42.679Z,66.48
2023-03-17T23:25:10.857Z,66.04
2023-03-17T23:27:37.848Z,66.17
2023-03-17T23:30:05.868Z,66.74
2023-03-17T23:32:34.287Z,66.58
2023-03-17T23:35:01.434Z,67.09
2023-03-17T23:37:28.449Z,67.70
2023-03-17T23:39:55.445Z,68.55
2023-03-17T23:42:22.434Z,68.76
2023-03-17T23:44:50.262Z,69.96
2023-03-17T23:47:17.826Z,70.12
2023-03-17T23:49:44.937Z,69.69
2023-03-17T23:52:12.004Z,70.82
2023-03-17T23:54:39.592Z,70.97
2023-03-17T23:57:07.677Z,71.47
2023-03-17T23:59:34.964Z,71.92
